Date,TemperatureHighF,TemperatureAvgF,TemperatureLowF,DewpointHighF,DewpointAvgF,DewpointLowF,HumidityHigh,HumidityAvg,HumidityLow,PressureMaxIn,PressureMinIn,WindSpeedMaxMPH,WindSpeedAvgMPH,GustSpeedMaxMPH,PrecipitationSumIn
2012-1-1,41,28,15,-100,-100,-100,0,0,100,0.00,40.00,0,-999,0,0.00
2012-1-2,45,31,20,-100,-100,-100,0,0,100,0.00,40.00,0,-999,0,0.00
2012-1-3,44,32,23,-100,-100,-100,0,0,100,0.00,40.00,0,-999,0,0.00
2012-1-4,45,31,18,-100,-100,-100,0,0,100,0.00,40.00,0,-999,0,0.00
2012-1-5,46,32,23,-100,-100,-100,0,0,100,0.00,40.00,0,-999,0,0.00
2012-1-6,43,30,22,-100,-100,-100,0,0,100,0.00,40.00,0,-999,0,0.00
2012-1-7,42,30,20,-100,-100,-100,0,0,100,0.00,40.00,0,-999,0,0.00
2012-1-8,31,23,11,-100,-100,-100,0,0,100,0.00,40.00,0,-999,0,0.00
2012-1-9,37,21,7,-100,-100,-100,0,0,100,0.00,40.00,0,-999,0,0.00
2012-1-10,47,28,19,-100,-100,-100,0,0,100,0.00,40.00,0,-999,0,0.00
2012-1-11,31,24,13,-100,-100,-100,0,0,100,0.00,40.00,0,-999,0,0.00
2012-1-12,27,18,11,-100,-100,-100,0,0,100,0.00,40.00,0,-999,0,0.00
2012-1-13,30,20,13,-100,-100,-100,0,0,100,0.00,40.00,0,-999,0,0.00
2012-1-14,42,24,11,-100,-100,-100,0,0,100,0.00,40.00,0,-999,0,0.00
2012-1-15,37,31,25,-100,-100,-100,0,0,100,0.00,40.00,0,-999,0,0.00
2012-1-16,33,28,23,-100,-100,-100,0,0,100,0.00,40.00,0,-999,0,0.01
2012-1-17,26,21,15,-100,-100,-100,0,0,100,0.00,40.00,0,-999,0,0.01
2012-1-18,34,27,20,-100,-100,-100,0,0,100,0.00,40.00,0,-999,0,0.00
2012-1-19,44,35,29,-100,-100,-100,0,0,100,0.00,40.00,0,-999,0,0.00
2012-1-20,42,34,21,-100,-100,-100,0,0,100,0.00,40.00,0,-999,0,0.00
2012-1-21,41,33,20,-100,-100,-100,0,0,100,0.00,40.00,0,-999,0,0.00
2012-1-22,32,25,21,-100,-100,-100,0,0,100,0.00,40.00,0,-999,0,0.00
2012-1-23,35,27,19,-100,-100,-100,0,0,100,0.00,40.00,0,-999,0,0.00
2012-1-24,39,28,16,-100,-100,-100,0,0,100,0.00,40.00,0,-999,0,0.00
2012-1-25,41,28,15,-100,-100,-100,0,0,100,0.00,40.00,0,-999,0,0.00
2012-1-26,44,33,24,-100,-100,-100,0,0,100,0.00,40.00,0,-999,0,0.00
2012-1-27,36,27,14,-100,-100,-100,0,0,100,0.00,40.00,0,-999,0,0.00
2012-1-28,35,23,12,-100,-100,-100,0,0,100,0.00,40.00,0,-999,0,0.00
2012-1-29,43,32,24,-100,-100,-100,0,0,100,0.00,40.00,0,-999,0,0.00
2012-1-30,41,32,22,-100,-100,-100,0,0,100,0.00,40.00,0,-999,0,0.00
2012-1-31,39,30,20,-100,-100,-100,0,0,100,0.00,40.00,0,-999,0,0.00
2012-2-1,39,28,18,-100,-100,-100,0,0,100,0.00,40.00,0,-999,0,0.01
2012-2-2,30,23,14,-100,-100,-100,0,0,100,0.00,40.00,0,-999,0,0.01
2012-2-3,26,16,6,-100,-100,-100,0,0,100,0.00,40.00,0,-999,0,0.01
2012-2-4,27,14,3,-100,-100,-100,0,0,100,0.00,40.00,0,-999,0,0.01
2012-2-5,31,16,4,-100,-100,-100,0,0,100,0.00,40.00,0,-999,0,0.00
2012-2-6,28,21,11,-100,-100,-100,0,0,100,0.00,40.00,0,-999,0,0.01
2012-2-7,31,16,4,-100,-100,-100,0,0,100,0.00,40.00,0,-999,0,0.01
2012-2-8,39,25,6,-100,-100,-100,0,0,100,0.00,40.00,0,-999,0,0.00
2012-2-9,37,28,17,-100,-100,-100,0,0,100,0.00,40.00,0,-999,0,0.00
2012-2-10,33,22,8,-100,-100,-100,0,0,100,0.00,40.00,0,-999,0,0.00
2012-2-11,39,28,13,-100,-100,-100,0,0,100,0.00,40.00,0,-999,0,0.00
2012-2-12,33,26,21,-100,-100,-100,0,0,100,0.00,40.00,0,-999,0,0.01
2012-2-13,32,26,23,-100,-100,-100,0,0,100,0.00,40.00,0,-999,0,0.01
2012-2-14,33,27,21,-100,-100,-100,0,0,100,0.00,40.00,0,-999,0,0.00
2012-2-15,31,23,12,-100,-100,-100,0,0,100,0.00,40.00,0,-999,0,0.00
2012-2-16,37,22,9,-100,-100,-100,0,0,100,0.00,40.00,0,-999,0,0.00
2012-2-17,40,24,11,-100,-100,-100,0,0,100,0.00,40.00,0,-999,0,0.00
2012-2-18,36,23,11,-100,-100,-100,0,0,100,0.00,40.00,0,-999,0,0.00
2012-2-19,38,24,13,-100,-100,-100,0,0,100,0.00,40.00,0,-999,0,0.00
2012-2-20,22,17,9,-100,-100,-100,0,0,100,0.00,40.00,0,-999,0,0.01
2012-2-21,32,24,14,-100,-100,-100,0,0,100,0.00,40.00,0,-999,0,0.00
2012-2-22,43,32,26,-100,-100,-100,0,0,100,0.00,40.00,0,-999,0,0.00
2012-2-23,41,29,13,-100,-100,-100,0,0,100,0.00,40.00,0,-999,0,0.00
2012-2-24,38,19,6,-100,-100,-100,0,0,100,0.00,40.00,0,-999,0,0.00
2012-2-25,42,32,17,-100,-100,-100,0,0,100,0.00,40.00,0,-999,0,0.00
2012-2-26,38,31,21,-100,-100,-100,0,0,100,0.00,40.00,0,-999,0,0.00
2012-2-27,39,28,16,-100,-100,-100,0,0,100,0.00,40.00,0,-999,0,0.00
2012-2-28,30,24,19,-100,-100,-100,0,0,100,0.00,40.00,0,-999,0,0.01
2012-2-29,35,27,15,-100,-100,-100,0,0,100,0.00,40.00,0,-999,0,0.01
2012-3-1,36,27,16,-100,-100,-100,0,0,100,0.00,40.00,0,-999,0,0.00
2012-3-2,19,14,7,-100,-100,-100,0,0,100,0.00,40.00,0,-999,0,0.01
2012-3-3,30,18,2,-100,-100,-100,0,0,100,0.00,40.00,0,-999,0,0.01
2012-3-4,43,31,22,-100,-100,-100,0,0,100,0.00,40.00,0,-999,0,0.00
2012-3-5,45,34,20,-100,-100,-100,0,0,100,0.00,40.00,0,-999,0,0.00
2012-3-6,50,38,29,-100,-100,-100,0,0,100,0.00,40.00,0,-999,0,0.00
2012-3-7,44,37,28,-100,-100,-100,0,0,100,0.00,40.00,0,-999,0,0.00
2012-3-8,28,23,17,-100,-100,-100,0,0,100,0.00,40.00,0,-999,0,0.00
2012-3-9,36,27,19,-100,-100,-100,0,0,100,0.00,40.00,0,-999,0,0.00
2012-3-10,40,31,25,-100,-100,-100,0,0,100,0.00,40.00,0,-999,0,0.01
2012-3-11,41,34,27,-100,-100,-100,0,0,100,0.00,40.00,0,-999,0,0.01
2012-3-12,46,37,29,-100,-100,-100,0,0,100,0.00,40.00,0,-999,0,0.01
2012-3-13,47,39,28,-100,-100,-100,0,0,100,0.00,40.00,0,-999,0,0.00
2012-3-14,39,36,32,-100,-100,-100,0,0,100,0.00,40.00,0,-999,0,0.00
2012-3-15,54,40,32,-100,-100,-100,0,0,100,0.00,40.00,0,-999,0,0.00
2012-3-16,52,41,29,-100,-100,-100,0,0,100,0.00,40.00,0,-999,0,0.00
2012-3-17,53,38,29,-100,-100,-100,0,0,100,0.00,40.00,0,-999,0,0.00
2012-3-18,48,36,23,-100,-100,-100,0,0,100,0.00,40.00,0,-999,0,0.00
2012-3-19,30,21,15,-100,-100,-100,0,0,100,0.00,40.00,0,-999,0,0.01
2012-3-20,30,21,13,-100,-100,-100,0,0,100,0.00,40.00,0,-999,0,0.01
2012-3-21,40,28,11,-100,-100,-100,0,0,100,0.00,40.00,0,-999,0,0.00
2012-3-22,49,38,27,-100,-100,-100,0,0,100,0.00,40.00,0,-999,0,0.00
2012-3-23,57,42,28,-100,-100,-100,0,0,100,0.00,40.00,0,-999,0,0.00
2012-3-24,60,43,30,-100,-100,-100,0,0,100,0.00,40.00,0,-999,0,0.00
2012-3-25,60,44,33,-100,-100,-100,0,0,100,0.00,40.00,0,-999,0,0.00
2012-3-26,54,45,38,-100,-100,-100,0,0,100,0.00,40.00,0,-999,0,0.00
2012-3-27,53,46,36,-100,-100,-100,0,0,100,0.00,40.00,0,-999,0,0.00
2012-3-28,53,43,34,-100,-100,-100,0,0,100,0.00,40.00,0,-999,0,0.00
2012-3-29,52,43,33,-100,-100,-100,0,0,100,0.00,40.00,0,-999,0,0.00
2012-3-30,56,43,30,-100,-100,-100,0,0,100,0.00,40.00,0,-999,0,0.00
2012-3-31,60,47,34,-100,-100,-100,0,0,100,0.00,40.00,0,-999,0,0.00
2012-4-1,55,46,40,-100,-100,-100,0,0,100,0.00,40.00,0,-999,0,0.00
2012-4-2,37,31,26,-100,-100,-100,0,0,100,0.00,40.00,0,-999,0,0.02
2012-4-3,30,27,23,-100,-100,-100,0,0,100,0.00,40.00,0,-999,0,0.02
2012-4-4,46,37,27,-100,-100,-100,0,0,100,0.00,40.00,0,-999,0,0.00
2012-4-5,54,44,38,-100,-100,-100,0,0,100,0.00,40.00,0,-999,0,0.00
2012-4-6,53,45,36,-100,-100,-100,0,0,100,0.00,40.00,0,-999,0,0.00
2012-4-7,50,38,26,-100,-100,-100,0,0,100,0.00,40.00,0,-999,0,0.00
2012-4-8,55,41,27,-100,-100,-100,0,0,100,0.00,40.00,0,-999,0,0.00
2012-4-9,58,44,33,-100,-100,-100,0,0,100,0.00,40.00,0,-999,0,0.00
2012-4-10,61,47,34,-100,-100,-100,0,0,100,0.00,40.00,0,-999,0,0.00
2012-4-11,53,43,35,-100,-100,-100,0,0,100,0.00,40.00,0,-999,0,0.00
2012-4-12,46,39,33,-100,-100,-100,0,0,100,0.00,40.00,0,-999,0,0.00
2012-4-13,50,39,30,-100,-100,-100,0,0,100,0.00,40.00,0,-999,0,0.00
2012-4-14,48,35,20,-100,-100,-100,0,0,100,0.00,40.00,0,-999,0,0.00
2012-4-15,38,27,20,-100,-100,-100,0,0,100,0.00,40.00,0,-999,0,0.02
2012-4-16,41,32,21,-100,-100,-100,0,0,100,0.00,40.00,0,-999,0,0.01
2012-4-17,52,37,23,-100,-100,-100,0,0,100,0.00,40.00,0,-999,0,0.00
2012-4-18,57,44,30,-100,-100,-100,0,0,100,0.00,40.00,0,-999,0,0.00
2012-4-19,49,42,35,-100,-100,-100,0,0,100,0.00,40.00,0,-999,0,0.00
2012-4-20,53,42,32,-100,-100,-100,0,0,100,0.00,40.00,0,-999,0,0.01
2012-4-21,61,49,39,-100,-100,-100,0,0,100,0.00,40.00,0,-999,0,0.00
2012-4-22,60,47,35,-100,-100,-100,0,0,100,0.00,40.00,0,-999,0,0.00
2012-4-23,63,48,35,-100,-100,-100,0,0,100,0.00,40.00,0,-999,0,0.00
2012-4-24,66,52,37,-100,-100,-100,0,0,100,0.00,40.00,0,-999,0,0.00
2012-4-25,64,54,43,-100,-100,-100,0,0,100,0.00,40.00,0,-999,0,0.00
2012-4-26,59,49,31,-100,-100,-100,0,0,100,0.00,40.00,0,-999,0,0.00
2012-4-27,48,39,31,-100,-100,-100,0,0,100,0.00,40.00,0,-999,0,0.01
2012-4-28,52,42,33,-100,-100,-100,0,0,100,0.00,40.00,0,-999,0,0.00
2012-4-29,56,44,34,-100,-100,-100,0,0,100,0.00,40.00,0,-999,0,0.00
2012-4-30,57,44,30,-100,-100,-100,0,0,100,0.00,40.00,0,-999,0,0.01
2012-5-1,61,52,44,-100,-100,-100,0,0,100,0.00,40.00,0,-999,0,0.00
2012-5-2,62,49,38,-100,-100,-100,0,0,100,0.00,40.00,0,-999,0,0.00
2012-5-3,64,50,34,-100,-100,-100,0,0,100,0.00,40.00,0,-999,0,0.00
2012-5-4,64,53,41,-100,-100,-100,0,0,100,0.00,40.00,0,-999,0,0.00
2012-5-5,65,52,42,-100,-100,-100,0,0,100,0.00,40.00,0,-999,0,0.00
2012-5-6,56,45,34,-100,-100,-100,0,0,100,0.00,40.00,0,-999,0,0.00
2012-5-7,40,36,33,-100,-100,-100,0,0,100,0.00,40.00,0,-999,0,0.01
2012-5-8,47,39,31,-100,-100,-100,0,0,100,0.00,40.00,0,-999,0,0.01
2012-5-9,57,44,29,-100,-100,-100,0,0,100,0.00,40.00,0,-999,0,0.00
2012-5-10,59,46,31,-100,-100,-100,0,0,100,0.00,40.00,0,-999,0,0.00
2012-5-11,54,42,35,-100,-100,-100,0,0,100,0.00,40.00,0,-999,0,0.00
2012-5-12,52,40,34,-100,-100,-100,0,0,100,0.00,40.00,0,-999,0,0.01
2012-5-13,51,38,32,-100,-100,-100,0,0,100,0.00,40.00,0,-999,0,0.01
2012-5-14,50,40,35,-100,-100,-100,0,0,100,0.00,40.00,0,-999,0,0.01
2012-5-15,54,39,31,-100,-100,-100,0,0,100,0.00,40.00,0,-999,0,0.00
2012-5-16,59,42,34,-100,-100,-100,0,0,100,0.00,40.00,0,-999,0,0.00
2012-5-17,62,50,37,-100,-100,-100,0,0,100,0.00,40.00,0,-999,0,0.00
2012-5-18,60,49,39,-100,-100,-100,0,0,100,0.00,40.00,0,-999,0,0.00
2012-5-19,60,48,38,-100,-100,-100,0,0,100,0.00,40.00,0,-999,0,0.00
2012-5-20,64,49,35,-100,-100,-100,0,0,100,0.00,40.00,0,-999,0,0.00
2012-5-21,65,50,38,-100,-100,-100,0,0,100,0.00,40.00,0,-999,0,0.00
2012-5-22,69,55,39,-100,-100,-100,0,0,100,0.00,40.00,0,-999,0,0.00
2012-5-23,65,56,51,-100,-100,-100,0,0,100,0.00,40.00,0,-999,0,0.00
2012-5-24,62,53,42,-100,-100,-100,0,0,100,0.00,40.00,0,-999,0,0.00
2012-5-25,69,53,38,-100,-100,-100,0,0,100,0.00,40.00,0,-999,0,0.00
2012-5-26,69,54,44,-100,-100,-100,0,0,100,0.00,40.00,0,-999,0,0.00
2012-5-27,49,43,39,-100,-100,-100,0,0,100,0.00,40.00,0,-999,0,0.00
2012-5-28,60,42,31,-100,-100,-100,0,0,100,0.00,40.00,0,-999,0,0.00
2012-5-29,60,44,32,-100,-100,-100,0,0,100,0.00,40.00,0,-999,0,0.00
2012-5-30,66,56,47,-100,-100,-100,0,0,100,0.00,40.00,0,-999,0,0.00
2012-5-31,71,53,35,-100,-100,-100,0,0,100,0.00,40.00,0,-999,0,0.00
2012-6-1,74,57,39,-100,-100,-100,0,0,100,0.00,40.00,0,-999,0,0.00
2012-6-2,71,54,43,-100,-100,-100,0,0,100,0.00,40.00,0,-999,0,0.01
2012-6-3,68,55,38,-100,-100,-100,0,0,100,0.00,40.00,0,-999,0,0.00
2012-6-4,64,51,43,-100,-100,-100,0,0,100,0.00,40.00,0,-999,0,0.01
2012-6-5,65,54,42,-100,-100,-100,0,0,100,0.00,40.00,0,-999,0,0.00
2012-6-6,73,58,42,-100,-100,-100,0,0,100,0.00,40.00,0,-999,0,0.81
2012-6-7,72,59,43,-100,-100,-100,0,0,100,0.00,40.00,0,-999,0,0.81
2012-6-8,74,59,43,-100,-100,-100,0,0,100,0.00,40.00,0,-999,0,0.00
2012-6-9,71,60,48,-100,-100,-100,0,0,100,0.00,40.00,0,-999,0,0.00
2012-6-10,69,59,49,-100,-100,-100,0,0,100,0.00,40.00,0,-999,0,0.00
2012-6-11,70,54,38,-100,-100,-100,0,0,100,0.00,40.00,0,-999,0,0.00
2012-6-12,70,55,42,-100,-100,-100,0,0,100,0.00,40.00,0,-999,0,0.01
2012-6-13,74,58,41,-100,-100,-100,0,0,100,0.00,40.00,0,-999,0,0.00
2012-6-14,78,59,42,-100,-100,-100,0,0,100,0.00,40.00,0,-999,0,0.00
2012-6-15,72,57,41,-100,-100,-100,0,0,100,0.00,40.00,0,-999,0,0.01
2012-6-16,70,56,44,-100,-100,-100,0,0,100,0.00,40.00,0,-999,0,0.00
2012-6-17,70,46,39,-100,-100,-100,0,0,100,0.00,40.00,0,-999,0,0.00
2012-6-18,77,63,45,-100,-100,-100,0,0,100,0.00,40.00,0,-999,0,0.00
2012-6-19,78,65,49,-100,-100,-100,0,0,100,0.00,40.00,0,-999,0,0.00
2012-6-20,78,66,44,-100,-100,-100,0,0,100,0.00,40.00,0,-999,0,0.00
2012-6-21,71,59,50,-100,-100,-100,0,0,100,0.00,40.00,0,-999,0,0.01
2012-6-22,77,64,46,-100,-100,-100,0,0,100,0.00,40.00,0,-999,0,0.00
2012-6-23,75,66,52,-100,-100,-100,0,0,100,0.00,40.00,0,-999,0,0.00
2012-6-24,81,65,49,-100,-100,-100,0,0,100,0.00,40.00,0,-999,0,0.00
2012-6-25,83,65,44,-100,-100,-100,0,0,100,0.00,40.00,0,-999,0,0.00
2012-6-26,80,64,48,-100,-100,-100,0,0,100,0.00,40.00,0,-999,0,0.00
2012-6-27,80,63,48,-100,-100,-100,0,0,100,0.00,40.00,0,-999,0,0.01
2012-6-28,77,61,48,-100,-100,-100,0,0,100,0.00,40.00,0,-999,0,0.00
2012-6-29,80,64,48,-100,-100,-100,0,0,100,0.00,40.00,0,-999,0,0.00
2012-6-30,80,66,49,-100,-100,-100,0,0,100,0.00,40.00,0,-999,0,0.01
2012-7-1,80,62,49,-100,-100,-100,0,0,100,0.00,40.00,0,-999,0,0.00
2012-7-2,71,60,48,-100,-100,-100,0,0,100,0.00,40.00,0,-999,0,0.01
2012-7-3,75,57,46,-100,-100,-100,0,0,100,0.00,40.00,0,-999,0,0.02
2012-7-4,71,56,45,-100,-100,-100,0,0,100,0.00,40.00,0,-999,0,0.01
2012-7-5,68,54,45,-100,-100,-100,0,0,100,0.00,40.00,0,-999,0,0.01
2012-7-6,67,55,42,-100,-100,-100,0,0,100,0.00,40.00,0,-999,0,0.01
2012-7-7,64,54,47,-100,-100,-100,0,0,100,0.00,40.00,0,-999,0,0.01
2012-7-8,67,54,45,-100,-100,-100,0,0,100,0.00,40.00,0,-999,0,0.01
2012-7-9,59,53,49,-100,-100,-100,0,0,100,0.00,40.00,0,-999,0,0.01
2012-7-10,63,55,44,-100,-100,-100,0,0,100,0.00,40.00,0,-999,0,0.01
2012-7-11,68,55,43,-100,-100,-100,0,0,100,0.00,40.00,0,-999,0,0.00
2012-7-12,70,56,43,-100,-100,-100,0,0,100,0.00,40.00,0,-999,0,0.00
2012-7-13,66,55,47,-100,-100,-100,0,0,100,0.00,40.00,0,-999,0,0.01
2012-7-14,72,56,46,-100,-100,-100,0,0,100,0.00,40.00,0,-999,0,0.00
2012-7-15,74,60,47,-100,-100,-100,0,0,100,0.00,40.00,0,-999,0,0.00
2012-7-16,71,55,46,-100,-100,-100,0,0,100,0.00,40.00,0,-999,0,0.00
2012-7-17,71,61,49,-100,-100,-100,0,0,100,0.00,40.00,0,-999,0,0.00
2012-7-18,71,57,45,-100,-100,-100,0,0,100,0.00,40.00,0,-999,0,0.01
2012-7-19,74,59,45,-100,-100,-100,0,0,100,0.00,40.00,0,-999,0,0.00
2012-7-20,77,61,45,-100,-100,-100,0,0,100,0.00,40.00,0,-999,0,0.00
2012-7-21,75,62,47,-100,-100,-100,0,0,100,0.00,40.00,0,-999,0,0.00
2012-7-22,72,59,47,-100,-100,-100,0,0,100,0.00,40.00,0,-999,0,0.00
2012-7-23,71,59,47,-100,-100,-100,0,0,100,0.00,40.00,0,-999,0,0.01
2012-7-24,76,56,45,-100,-100,-100,0,0,100,0.00,40.00,0,-999,0,0.02
2012-7-25,68,55,48,-100,-100,-100,0,0,100,0.00,40.00,0,-999,0,0.03
2012-7-26,66,56,50,-100,-100,-100,0,0,100,0.00,40.00,0,-999,0,0.01
2012-7-27,68,57,48,-100,-100,-100,0,0,100,0.00,40.00,0,-999,0,0.00
2012-7-28,72,59,46,-100,-100,-100,0,0,100,0.00,40.00,0,-999,0,0.00
2012-7-29,73,61,49,-100,-100,-100,0,0,100,0.00,40.00,0,-999,0,0.00
2012-7-30,77,61,48,-100,-100,-100,0,0,100,0.00,40.00,0,-999,0,0.00
2012-7-31,72,61,49,-100,-100,-100,0,0,100,0.00,40.00,0,-999,0,0.01
2012-8-1,75,64,47,-100,-100,-100,0,0,100,0.00,40.00,0,-999,0,0.00
2012-8-2,74,61,49,-100,-100,-100,0,0,100,0.00,40.00,0,-999,0,0.00
2012-8-3,72,60,49,-100,-100,-100,0,0,100,0.00,40.00,0,-999,0,0.01
2012-8-4,71,55,45,-100,-100,-100,0,0,100,0.00,40.00,0,-999,0,0.00
2012-8-5,71,55,47,-100,-100,-100,0,0,100,0.00,40.00,0,-999,0,0.00
2012-8-6,72,58,46,-100,-100,-100,0,0,100,0.00,40.00,0,-999,0,0.01
2012-8-7,71,57,47,-100,-100,-100,0,0,100,0.00,40.00,0,-999,0,0.00
2012-8-8,70,59,48,-100,-100,-100,0,0,100,0.00,40.00,0,-999,0,0.00
2012-8-9,74,67,58,-100,-100,-100,0,0,100,0.00,40.00,0,-999,0,0.00
2012-8-10,71,58,48,-100,-100,-100,0,0,100,0.00,40.00,0,-999,0,0.01
2012-8-11,76,59,47,-100,-100,-100,0,0,100,0.00,40.00,0,-999,0,0.00
2012-8-12,70,56,45,-100,-100,-100,0,0,100,0.00,40.00,0,-999,0,0.01
2012-8-13,71,55,43,-100,-100,-100,0,0,100,0.00,40.00,0,-999,0,0.01
2012-8-14,69,55,47,-100,-100,-100,0,0,100,0.00,40.00,0,-999,0,0.01
2012-8-15,70,56,47,-100,-100,-100,0,0,100,0.00,40.00,0,-999,0,0.00
2012-8-16,69,54,44,-100,-100,-100,0,0,100,0.00,40.00,0,-999,0,0.01
2012-8-17,71,54,45,-100,-100,-100,0,0,100,0.00,40.00,0,-999,0,0.00
2012-8-18,66,55,44,-100,-100,-100,0,0,100,0.00,40.00,0,-999,0,0.01
2012-8-19,68,54,43,-100,-100,-100,0,0,100,0.00,40.00,0,-999,0,0.01
2012-8-20,64,53,47,-100,-100,-100,0,0,100,0.00,40.00,0,-999,0,0.01
2012-8-21,67,55,41,-100,-100,-100,0,0,100,0.00,40.00,0,-999,0,0.00
2012-8-22,65,53,46,-100,-100,-100,0,0,100,0.00,40.00,0,-999,0,0.01
2012-8-23,68,55,47,-100,-100,-100,0,0,100,0.00,40.00,0,-999,0,0.00
2012-8-24,67,54,44,-100,-100,-100,0,0,100,0.00,40.00,0,-999,0,0.01
2012-8-25,66,54,42,-100,-100,-100,0,0,100,0.00,40.00,0,-999,0,0.01
2012-8-26,67,56,46,-100,-100,-100,0,0,100,0.00,40.00,0,-999,0,0.00
2012-8-27,69,57,45,-100,-100,-100,0,0,100,0.00,40.00,0,-999,0,0.00
2012-8-28,71,58,43,-100,-100,-100,0,0,100,0.00,40.00,0,-999,0,0.00
2012-8-29,73,59,44,-100,-100,-100,0,0,100,0.00,40.00,0,-999,0,0.00
2012-8-30,72,57,44,-100,-100,-100,0,0,100,0.00,40.00,0,-999,0,0.00
2012-8-31,71,57,44,-100,-100,-100,0,0,100,0.00,40.00,0,-999,0,0.00
2012-9-1,74,58,44,-100,-100,-100,0,0,100,0.00,40.00,0,-999,0,0.00
2012-9-2,71,59,48,-100,-100,-100,0,0,100,0.00,40.00,0,-999,0,0.01
2012-9-3,70,58,45,-100,-100,-100,0,0,100,0.00,40.00,0,-999,0,0.01
2012-9-4,73,57,45,-100,-100,-100,0,0,100,0.00,40.00,0,-999,0,0.00
2012-9-5,71,56,45,-100,-100,-100,0,0,100,0.00,40.00,0,-999,0,0.01
2012-9-6,73,58,45,-100,-100,-100,0,0,100,0.00,40.00,0,-999,0,0.00
2012-9-7,71,54,45,-100,-100,-100,0,0,100,0.00,40.00,0,-999,0,0.01
2012-9-8,58,48,44,-100,-100,-100,0,0,100,0.00,40.00,0,-999,0,0.01
2012-9-9,62,49,36,-100,-100,-100,0,0,100,0.00,40.00,0,-999,0,0.01
2012-9-10,66,52,40,-100,-100,-100,0,0,100,0.00,40.00,0,-999,0,0.00
2012-9-11,67,54,48,-100,-100,-100,0,0,100,0.00,40.00,0,-999,0,0.01
2012-9-12,51,47,40,-100,-100,-100,0,0,100,0.00,40.00,0,-999,0,0.04
2012-9-13,50,44,38,-100,-100,-100,0,0,100,0.00,40.00,0,-999,0,0.01
2012-9-14,54,44,33,-100,-100,-100,0,0,100,0.00,40.00,0,-999,0,0.00
2012-9-15,63,45,31,-100,-100,-100,0,0,100,0.00,40.00,0,-999,0,0.00
2012-9-16,66,52,38,-100,-100,-100,0,0,100,0.00,40.00,0,-999,0,0.00
2012-9-17,59,45,34,-100,-100,-100,0,0,100,0.00,40.00,0,-999,0,0.01
2012-9-18,60,46,33,-100,-100,-100,0,0,100,0.00,40.00,0,-999,0,0.00
2012-9-19,65,52,37,-100,-100,-100,0,0,100,0.00,40.00,0,-999,0,0.00
2012-9-20,64,51,39,-100,-100,-100,0,0,100,0.00,40.00,0,-999,0,0.00
2012-9-21,67,51,38,-100,-100,-100,0,0,100,0.00,40.00,0,-999,0,0.00
2012-9-22,68,52,39,-100,-100,-100,0,0,100,0.00,40.00,0,-999,0,0.00
2012-9-23,63,53,40,-100,-100,-100,0,0,100,0.00,40.00,0,-999,0,0.01
2012-9-24,62,49,38,-100,-100,-100,0,0,100,0.00,40.00,0,-999,0,0.00
2012-9-25,55,43,37,-100,-100,-100,0,0,100,0.00,40.00,0,-999,0,0.01
2012-9-26,58,44,35,-100,-100,-100,0,0,100,0.00,40.00,0,-999,0,0.01
2012-9-27,57,47,36,-100,-100,-100,0,0,100,0.00,40.00,0,-999,0,0.00
2012-9-28,55,44,35,-100,-100,-100,0,0,100,0.00,40.00,0,-999,0,0.00
2012-9-29,47,41,37,-100,-100,-100,0,0,100,0.00,40.00,0,-999,0,0.01
2012-9-30,58,46,35,-100,-100,-100,0,0,100,0.00,40.00,0,-999,0,0.01
2012-10-1,56,45,34,-100,-100,-100,0,0,100,0.00,40.00,0,-999,0,0.00
2012-10-2,61,46,35,-100,-100,-100,0,0,100,0.00,40.00,0,-999,0,0.00
2012-10-3,63,49,36,-100,-100,-100,0,0,100,0.00,40.00,0,-999,0,0.00
2012-10-4,62,52,41,-100,-100,-100,0,0,100,0.00,40.00,0,-999,0,0.00
2012-10-5,59,51,44,-100,-100,-100,0,0,100,0.00,40.00,0,-999,0,0.00
2012-10-6,56,44,30,-100,-100,-100,0,0,100,0.00,40.00,0,-999,0,0.00
2012-10-7,48,37,27,-100,-100,-100,0,0,100,0.00,40.00,0,-999,0,0.01
2012-10-8,52,43,32,-100,-100,-100,0,0,100,0.00,40.00,0,-999,0,0.00
2012-10-9,58,47,37,-100,-100,-100,0,0,100,0.00,40.00,0,-999,0,0.00
2012-10-10,59,46,35,-100,-100,-100,0,0,100,0.00,40.00,0,-999,0,0.00
2012-10-11,62,50,38,-100,-100,-100,0,0,100,0.00,40.00,0,-999,0,0.00
2012-10-12,46,42,36,-100,-100,-100,0,0,100,0.00,40.00,0,-999,0,0.02
2012-10-13,42,36,31,-100,-100,-100,0,0,100,0.00,40.00,0,-999,0,0.01
2012-10-14,53,41,30,-100,-100,-100,0,0,100,0.00,40.00,0,-999,0,0.00
2012-10-15,57,44,31,-100,-100,-100,0,0,100,0.00,40.00,0,-999,0,0.00
2012-10-16,58,47,35,-100,-100,-100,0,0,100,0.00,40.00,0,-999,0,0.00
2012-10-17,54,48,41,-100,-100,-100,0,0,100,0.00,40.00,0,-999,0,0.00
2012-10-18,55,44,35,-100,-100,-100,0,0,100,0.00,40.00,0,-999,0,0.00
2012-10-19,59,47,30,-100,-100,-100,0,0,100,0.00,40.00,0,-999,0,0.00
2012-10-20,62,48,33,-100,-100,-100,0,0,100,0.00,40.00,0,-999,0,0.00
2012-10-21,55,46,40,-100,-100,-100,0,0,100,0.00,40.00,0,-999,0,0.00
2012-10-22,54,46,37,-100,-100,-100,0,0,100,0.00,40.00,0,-999,0,0.00
2012-10-23,56,50,44,-100,-100,-100,0,0,100,0.00,40.00,0,-999,0,0.00
2012-10-24,57,49,41,-100,-100,-100,0,0,100,0.00,40.00,0,-999,0,0.00
2012-10-25,44,35,28,-100,-100,-100,0,0,100,0.00,40.00,0,-999,0,0.00
2012-10-26,38,29,21,-100,-100,-100,0,0,100,0.00,40.00,0,-999,0,0.00
2012-10-27,44,34,24,-100,-100,-100,0,0,100,0.00,40.00,0,-999,0,0.00
2012-10-28,52,40,28,-100,-100,-100,0,0,100,0.00,40.00,0,-999,0,0.00
2012-10-29,55,43,34,-100,-100,-100,0,0,100,0.00,40.00,0,-999,0,0.00
2012-10-30,57,42,31,-100,-100,-100,0,0,100,0.00,40.00,0,-999,0,0.00
2012-10-31,56,37,29,-100,-100,-100,0,0,100,0.00,40.00,0,-999,0,0.00
2012-11-1,54,42,29,-100,-100,-100,0,0,100,0.00,40.00,0,-999,0,0.00
2012-11-2,51,43,31,-100,-100,-100,0,0,100,0.00,40.00,0,-999,0,0.00
2012-11-3,49,38,31,-100,-100,-100,0,0,100,0.00,40.00,0,-999,0,0.00
2012-11-4,54,38,27,-100,-100,-100,0,0,100,0.00,40.00,0,-999,0,0.00
2012-11-5,52,42,31,-100,-100,-100,0,0,100,0.00,40.00,0,-999,0,0.00
2012-11-6,58,42,31,-100,-100,-100,0,0,100,0.00,40.00,0,-999,0,0.00
2012-11-7,56,43,31,-100,-100,-100,0,0,100,0.00,40.00,0,-999,0,0.00
2012-11-8,53,42,30,-100,-100,-100,0,0,100,0.00,40.00,0,-999,0,0.00
2012-11-9,46,38,35,-100,-100,-100,0,0,100,0.00,40.00,0,-999,0,0.01
2012-11-10,37,28,16,-100,-100,-100,0,0,100,0.00,40.00,0,-999,0,0.03
2012-11-11,21,15,10,-100,-100,-100,0,0,100,0.00,40.00,0,-999,0,0.01
2012-11-12,36,22,8,-100,-100,-100,0,0,100,0.00,40.00,0,-999,0,0.00
2012-11-13,41,30,21,-100,-100,-100,0,0,100,0.00,40.00,0,-999,0,0.00
2012-11-14,45,34,18,-100,-100,-100,0,0,100,0.00,40.00,0,-999,0,0.00
2012-11-15,47,33,24,-100,-100,-100,0,0,100,0.00,40.00,0,-999,0,0.00
2012-11-16,46,33,23,-100,-100,-100,0,0,100,0.00,40.00,0,-999,0,0.00
2012-11-17,46,37,27,-100,-100,-100,0,0,100,0.00,40.00,0,-999,0,0.00
2012-11-18,43,36,33,-100,-100,-100,0,0,100,0.00,40.00,0,-999,0,0.00
2012-11-19,45,35,28,-100,-100,-100,0,0,100,0.00,40.00,0,-999,0,0.00
2012-11-20,49,35,24,-100,-100,-100,0,0,100,0.00,40.00,0,-999,0,0.00
2012-11-21,50,38,31,-100,-100,-100,0,0,100,0.00,40.00,0,-999,0,0.00
2012-11-22,46,36,26,-100,-100,-100,0,0,100,0.00,40.00,0,-999,0,0.00
2012-11-23,44,32,22,-100,-100,-100,0,0,100,0.00,40.00,0,-999,0,0.00
2012-11-24,48,36,26,-100,-100,-100,0,0,100,0.00,40.00,0,-999,0,0.00
2012-11-25,46,35,24,-100,-100,-100,0,0,100,0.00,40.00,0,-999,0,0.00
2012-11-26,32,28,25,-100,-100,-100,0,0,100,0.00,40.00,0,-999,0,0.00
2012-11-27,45,32,19,-100,-100,-100,0,0,100,0.00,40.00,0,-999,0,0.00
2012-11-28,44,34,20,-100,-100,-100,0,0,100,0.00,40.00,0,-999,0,0.00
2012-11-29,46,37,27,-100,-100,-100,0,0,100,0.00,40.00,0,-999,0,0.00
2012-11-30,46,38,29,-100,-100,-100,0,0,100,0.00,40.00,0,-999,0,0.00
2012-12-1,44,36,26,-100,-100,-100,0,0,100,0.00,40.00,0,-999,0,0.00
2012-12-2,44,35,24,-100,-100,-100,0,0,100,0.00,40.00,0,-999,0,0.00
2012-12-3,44,38,32,-100,-100,-100,0,0,100,0.00,40.00,0,-999,0,0.00
2012-12-4,42,33,23,-100,-100,-100,0,0,100,0.00,40.00,0,-999,0,0.00
2012-12-5,49,39,30,-100,-100,-100,0,0,100,0.00,40.00,0,-999,0,0.00
2012-12-6,45,38,32,-100,-100,-100,0,0,100,0.00,40.00,0,-999,0,0.00
2012-12-7,40,34,27,-100,-100,-100,0,0,100,0.00,40.00,0,-999,0,0.00
2012-12-8,36,28,26,-100,-100,-100,0,0,100,0.00,40.00,0,-999,0,0.00
2012-12-9,29,18,-4,-100,-100,-100,0,0,100,0.00,40.00,0,-999,0,0.02
2012-12-10,25,13,-3,-100,-100,-100,0,0,100,0.00,40.00,0,-999,0,0.01
2012-12-11,22,15,1,-100,-100,-100,0,0,100,0.00,40.00,0,-999,0,0.00
2012-12-12,37,27,15,-100,-100,-100,0,0,100,0.00,40.00,0,-999,0,0.00
2012-12-13,43,28,17,-100,-100,-100,0,0,100,0.00,40.00,0,-999,0,0.00
2012-12-14,33,26,22,-100,-100,-100,0,0,100,0.00,40.00,0,-999,0,0.01
2012-12-15,28,23,20,-100,-100,-100,0,0,100,0.00,40.00,0,-999,0,0.01
2012-12-16,24,18,11,-100,-100,-100,0,0,100,0.00,40.00,0,-999,0,0.01
2012-12-17,28,22,14,-100,-100,-100,0,0,100,0.00,40.00,0,-999,0,0.00
2012-12-18,33,26,17,-100,-100,-100,0,0,100,0.00,40.00,0,-999,0,0.00
2012-12-19,30,20,6,-100,-100,-100,0,0,100,0.00,40.00,0,-999,0,0.02
2012-12-20,31,15,6,-100,-100,-100,0,0,100,0.00,40.00,0,-999,0,0.01
2012-12-21,43,22,10,-100,-100,-100,0,0,100,0.00,40.00,0,-999,0,0.00
2012-12-22,43,30,17,-100,-100,-100,0,0,100,0.00,40.00,0,-999,0,0.00
2012-12-23,35,26,16,-100,-100,-100,0,0,100,0.00,40.00,0,-999,0,0.00
2012-12-24,35,27,19,-100,-100,-100,0,0,100,0.00,40.00,0,-999,0,0.00
2012-12-25,27,19,10,-100,-100,-100,0,0,100,0.00,40.00,0,-999,0,0.01
2012-12-26,34,20,5,-100,-100,-100,0,0,100,0.00,40.00,0,-999,0,0.00
2012-12-27,22,17,10,-100,-100,-100,0,0,100,0.00,40.00,0,-999,0,0.01
2012-12-28,21,12,2,-100,-100,-100,0,0,100,0.00,40.00,0,-999,0,0.00
2012-12-29,37,16,-2,-100,-100,-100,0,0,100,0.00,40.00,0,-999,0,0.00
2012-12-30,37,26,18,-100,-100,-100,0,0,100,0.00,40.00,0,-999,0,0.00
2012-12-31,27,20,13,-100,-100,-100,0,0,100,0.00,40.00,0,-999,0,0.01
2013-1-1,19,10,-1,-100,-100,-100,0,0,100,0.00,40.00,0,-999,0,0.01